Aeroporto :
LOGIN :

Iscrizione | Disclaimer

   EN    FR    IT 

 










Sommario :    VFR   VFR Marginale   IFR   IFR Intensivo   IFR Molto Intensivo
Visibilità : 
Base nubi : 
>= 8 km
>= 3000ft
5 / 8 km
1000 / 3000 ft
1500m / 5 km
500 / 1000 ft
800 / 1500m
200 / 500 ft
< 800m
< 200 ft
Simboli :   Temporali  Nebbia  Neve Forte  Precipitazioni Forti  Vento > 20 kt
SIGMETs :   Varie  Temporali  Ghiacco  Turbolenza  Onda orograficha  Ceneri Vulcaniche






- Altitudine del aeroporto : 238 ft
- Codice IATA : FAB


EGLF - Farnborough

ULTIMO METAR :
  • 160750Z AUTO 19008KT 9999 NCD 06/04 Q1000

METARs OBSOLETI :
  • 160720Z AUTO 19009KT 9999 NCD 06/04 Q0999
  • 160650Z AUTO 21008KT 9999 NCD 06/04 Q0999
  • 160620Z AUTO 19008KT 9999 NCD 07/05 Q0999
  • 160550Z AUTO 18007KT 9999 NCD 07/05 Q0999
  • 160520Z AUTO 18008KT 9999 NCD 07/05 Q0999

TAF TAF EGLF
Valido dal 16 a 06 ore il 16 a 15 ore UTC


160508Z 1606/1615 21010KT 9999 FEW030
PROB30
TEMPO 1606/1612 7000 SHRA
BECMG 1613/1615 VRB05KT
TEMPO 1614/1615 6000 -RA BKN009
ATIS : +44 09063 800 400 (*282)



MetMap, La meteo Aeronautica in un colpo d'occhio ! - Copyright ORBIFLY Dicembre 2007 - Disclaimer

ORBIFLY MET'MAP TEAM :

Programmazione e sviluppo : Alexandra Zaïnal
Concezione : Baudouin d'Aumeries
Aiuto per la programmazione : Marc-Olivier Méhu
Supporto tecnico e logistico : Manuel Goepfert
Aiuto per la traduzione : Arnaldo La Scala

Contatto : metmap@orbifly.com




FONTI E CREDITI :

   NOAA